sensor_id;sensor_type;location;lat;lon;timestamp;pressure;altitude;pressure_sealevel;temperature;humidity
66664;BME280;59683;51.428;-1.994;2023-05-16T06:11:02;101772.09;;;6.02;100.00
66664;BME280;59683;51.428;-1.994;2023-05-16T06:13:27;101778.69;;;6.72;100.00
66664;BME280;59683;51.428;-1.994;2023-05-16T06:15:53;101785.47;;;7.34;100.00
66664;BME280;59683;51.428;-1.994;2023-05-16T06:18:22;101788.75;;;7.75;100.00
66664;BME280;59683;51.428;-1.994;2023-05-16T06:20:47;101787.50;;;8.35;100.00
66664;BME280;59683;51.428;-1.994;2023-05-16T06:23:13;101790.16;;;8.85;100.00
66664;BME280;59683;51.428;-1.994;2023-05-16T06:25:38;101795.31;;;9.20;100.00
66664;BME280;59683;51.428;-1.994;2023-05-16T06:28:04;101794.34;;;9.68;100.00
66664;BME280;59683;51.428;-1.994;2023-05-16T06:30:29;101787.69;;;9.93;100.00
66664;BME280;59683;51.428;-1.994;2023-05-16T06:32:55;101794.34;;;10.14;100.00
66664;BME280;59683;51.428;-1.994;2023-05-16T06:35:20;101797.81;;;10.31;100.00
66664;BME280;59683;51.428;-1.994;2023-05-16T06:37:46;101804.28;;;10.69;100.00
66664;BME280;59683;51.428;-1.994;2023-05-16T06:40:11;101804.84;;;11.03;100.00
66664;BME280;59683;51.428;-1.994;2023-05-16T06:42:37;101805.69;;;11.59;100.00
66664;BME280;59683;51.428;-1.994;2023-05-16T06:45:03;101797.81;;;11.58;100.00
66664;BME280;59683;51.428;-1.994;2023-05-16T06:47:28;101805.00;;;11.97;100.00
66664;BME280;59683;51.428;-1.994;2023-05-16T06:49:54;101794.13;;;12.27;100.00
66664;BME280;59683;51.428;-1.994;2023-05-16T06:52:20;101790.03;;;12.49;100.00
66664;BME280;59683;51.428;-1.994;2023-05-16T06:54:45;101773.31;;;12.72;100.00
66664;BME280;59683;51.428;-1.994;2023-05-16T06:57:10;101755.41;;;13.00;100.00
66664;BME280;59683;51.428;-1.994;2023-05-16T06:59:36;101746.44;;;13.26;100.00
66664;BME280;59683;51.428;-1.994;2023-05-16T07:02:01;101743.91;;;13.84;100.00
66664;BME280;59683;51.428;-1.994;2023-05-16T07:04:27;101745.16;;;14.38;100.00
66664;BME280;59683;51.428;-1.994;2023-05-16T07:06:53;101749.69;;;14.60;100.00
66664;BME280;59683;51.428;-1.994;2023-05-16T07:09:20;101750.88;;;14.89;100.00
66664;BME280;59683;51.428;-1.994;2023-05-16T07:11:45;101747.53;;;15.30;100.00
66664;BME280;59683;51.428;-1.994;2023-05-16T07:14:11;101744.16;;;15.61;100.00
66664;BME280;59683;51.428;-1.994;2023-05-16T07:16:36;101747.69;;;15.93;100.00
66664;BME280;59683;51.428;-1.994;2023-05-16T07:19:02;101749.09;;;16.60;100.00
66664;BME280;59683;51.428;-1.994;2023-05-16T07:21:28;101750.44;;;16.24;89.45
66664;BME280;59683;51.428;-1.994;2023-05-16T07:23:54;101757.59;;;16.44;74.65
66664;BME280;59683;51.428;-1.994;2023-05-16T07:26:19;101753.59;;;16.39;79.92
66664;BME280;59683;51.428;-1.994;2023-05-16T07:28:51;101752.97;;;17.08;69.22
66664;BME280;59683;51.428;-1.994;2023-05-16T07:31:16;101757.44;;;16.67;70.62
66664;BME280;59683;51.428;-1.994;2023-05-16T07:33:42;101751.63;;;16.62;80.66
66664;BME280;59683;51.428;-1.994;2023-05-16T07:36:08;101751.53;;;16.73;74.26
66664;BME280;59683;51.428;-1.994;2023-05-16T07:38:34;101756.63;;;16.76;74.33
66664;BME280;59683;51.428;-1.994;2023-05-16T07:40:59;101755.03;;;16.43;75.44
66664;BME280;59683;51.428;-1.994;2023-05-16T07:43:25;101762.66;;;17.09;69.29
66664;BME280;59683;51.428;-1.994;2023-05-16T07:45:50;101751.81;;;17.01;67.39
66664;BME280;59683;51.428;-1.994;2023-05-16T07:48:16;101760.69;;;16.49;80.28
66664;BME280;59683;51.428;-1.994;2023-05-16T07:50:42;101757.69;;;16.64;75.54
66664;BME280;59683;51.428;-1.994;2023-05-16T07:53:07;101755.16;;;16.93;72.87
66664;BME280;59683;51.428;-1.994;2023-05-16T07:55:33;101753.75;;;16.98;76.64
66664;BME280;59683;51.428;-1.994;2023-05-16T07:57:59;101751.28;;;17.26;67.20
66664;BME280;59683;51.428;-1.994;2023-05-16T08:00:24;101754.06;;;17.15;65.25
66664;BME280;59683;51.428;-1.994;2023-05-16T08:02:50;101757.22;;;17.30;73.32
66664;BME280;59683;51.428;-1.994;2023-05-16T08:05:15;101752.59;;;17.70;62.56
66664;BME280;59683;51.428;-1.994;2023-05-16T08:07:41;101751.28;;;17.26;66.91
66664;BME280;59683;51.428;-1.994;2023-05-16T08:10:07;101752.56;;;17.22;68.67
66664;BME280;59683;51.428;-1.994;2023-05-16T08:12:32;101764.03;;;17.53;69.58
66664;BME280;59683;51.428;-1.994;2023-05-16T08:14:58;101765.44;;;17.67;67.43
66664;BME280;59683;51.428;-1.994;2023-05-16T08:17:23;101761.34;;;17.72;68.38
66664;BME280;59683;51.428;-1.994;2023-05-16T08:19:49;101763.31;;;17.70;66.50
66664;BME280;59683;51.428;-1.994;2023-05-16T08:22:14;101763.94;;;17.84;61.90
66664;BME280;59683;51.428;-1.994;2023-05-16T08:24:40;101771.06;;;17.73;58.75
66664;BME280;59683;51.428;-1.994;2023-05-16T08:27:05;101758.84;;;17.02;65.87
66664;BME280;59683;51.428;-1.994;2023-05-16T08:29:31;101763.97;;;17.34;62.75
66664;BME280;59683;51.428;-1.994;2023-05-16T08:31:56;101762.19;;;17.34;65.05
66664;BME280;59683;51.428;-1.994;2023-05-16T08:34:22;101755.25;;;17.32;64.64
66664;BME280;59683;51.428;-1.994;2023-05-16T11:13:02;101745.41;;;21.40;43.10
66664;BME280;59683;51.428;-1.994;2023-05-16T13:09:14;101710.44;;;23.54;40.48
66664;BME280;59683;51.428;-1.994;2023-05-16T13:11:40;101704.16;;;23.99;38.66
66664;BME280;59683;51.428;-1.994;2023-05-16T13:14:06;101700.97;;;25.00;37.54
66664;BME280;59683;51.428;-1.994;2023-05-16T13:16:31;101716.81;;;24.52;37.96
